Weather History for Frankfort, MI

Change the Weather History Date:

Friday, November 15, 2013

  Actual Average (KTVC) Record (KTVC)
Temperature  
Mean Temperature 44 °F 38 °F  
Max Temperature 49 °F 44 °F 65 °F (1990)
Min Temperature 39 °F 31 °F 7 °F (1996)
Degree Days  
Heating Degree Days 20 27  
Month to date heating degree days 372  
Since 1 July heating degree days 1159  
Moisture  
Dew Point 37 °F    
Average Humidity 73    
Maximum Humidity 83    
Minimum Humidity 64    
Precipitation  
Precipitation 0.00 in 0.10 in 1.38 in (1944)
Month to date precipitation 1.39  
Year to date precipitation 29.25  
Sea Level Pressure  
Sea Level Pressure 29.89 in    
Wind  
Wind Speed 7 mph (SSW)    
Max Wind Speed 15 mph    
Max Gust Speed 20 mph    
Visibility 10 miles    
Events      
T = Trace of Precipitation, MM = Missing Value Source: NWS Daily Summary

Daily Weather History Graph

Daily Weather History Graph

Search for Another Location

Airport:

Trip Planner

Search our weather history database for the weather conditions in past years. The results will help you decide how hot, cold, wet, or windy it might be!

Date:

Astronomy

Nov. 15, 2013 Rise Set
Actual Time 7:41 AM EST 5:16 PM EST
Civil Twilight 7:10 AM EST 5:48 PM EST
Nautical Twilight 6:34 AM EST 6:23 PM EST
Astronomical Twilight 6:00 AM EST 6:57 PM EST
Moon 4:16 PM EST 5:33 AM EST
Length of Visible Light 10h 38m
Length of Day
9h 34m
Waxing Gibbous, 96% of the Moon is Illuminated
Nov 15
Waxing Gibbous
Nov 17
Full
Nov 25
Last Quarter
Dec 2
New
Dec 9
First Quarter

Hourly Weather History & Observations

Time (EST) Temp. Windchill Dew Point Humidity Pressure Visibility Wind Dir Wind Speed Gust Speed Precip Events Conditions
12:13 AM 43.3 °F 38.6 °F 37.2 °F 79% 29.86 in 10.0 mi SW 8.1 mph - N/A   Overcast
12:33 AM 43.3 °F 39.9 °F 36.7 °F 77% 29.86 in 10.0 mi SSW 5.8 mph - N/A   Mostly Cloudy
12:53 AM 43.7 °F 40.3 °F 36.5 °F 76% 29.87 in 10.0 mi SW 5.8 mph - N/A   Scattered Clouds
1:13 AM 44.1 °F 40.1 °F 36.5 °F 75% 29.87 in 10.0 mi SSW 6.9 mph - N/A   Overcast
1:33 AM 44.2 °F 41.0 °F 36.5 °F 74% 29.87 in 10.0 mi SW 5.8 mph - N/A   Overcast
1:54 AM 44.6 °F 40.7 °F 36.1 °F 72% 29.86 in 10.0 mi SW 6.9 mph - N/A   Overcast
2:14 AM 44.6 °F 41.4 °F 35.6 °F 71% 29.86 in 10.0 mi SSW 5.8 mph - N/A   Overcast
2:34 AM 44.8 °F 41.6 °F 36.1 °F 72% 29.86 in 10.0 mi SSW 5.8 mph - N/A   Overcast
2:54 AM 45.0 °F 41.2 °F 35.8 °F 70% 29.86 in 10.0 mi SSW 6.9 mph - N/A   Overcast
3:14 AM 45.5 °F 41.3 °F 35.4 °F 68% 29.86 in 10.0 mi SSW 8.1 mph - N/A   Overcast
3:34 AM 45.5 °F 42.5 °F 34.9 °F 66% 29.86 in 10.0 mi SW 5.8 mph - N/A   Overcast
3:54 AM 44.6 °F 40.2 °F 37.0 °F 75% 29.86 in 10.0 mi SSW 8.1 mph - N/A   Overcast
4:14 AM 44.6 °F 40.2 °F 37.0 °F 75% 29.85 in 10.0 mi SSW 8.1 mph - N/A   Overcast
4:34 AM 44.4 °F 42.0 °F 37.2 °F 76% 29.85 in 10.0 mi SSW 4.6 mph - N/A   Overcast
4:55 AM 44.8 °F 39.4 °F 36.5 °F 73% 29.85 in 10.0 mi SSW 10.4 mph 16.1 mph N/A   Scattered Clouds
5:15 AM 44.6 °F 39.7 °F 36.9 °F 74% 29.85 in 10.0 mi SSW 9.2 mph - N/A   Clear
5:35 AM 44.6 °F 40.7 °F 36.5 °F 73% 29.86 in 10.0 mi SSW 6.9 mph - N/A   Clear
5:55 AM 44.6 °F 41.4 °F 36.9 °F 74% 29.86 in 10.0 mi SW 5.8 mph - N/A   Clear
6:15 AM 43.9 °F 41.3 °F 36.7 °F 76% 29.86 in 10.0 mi South 4.6 mph - N/A   Clear
6:35 AM 44.6 °F 40.7 °F 36.5 °F 73% 29.86 in 10.0 mi SW 6.9 mph - N/A   Clear
6:55 AM 43.2 °F 41.5 °F 36.5 °F 77% 29.87 in 10.0 mi SSW 3.5 mph - N/A   Clear
7:15 AM 44.6 °F 41.4 °F 36.5 °F 73% 29.88 in 10.0 mi South 5.8 mph - N/A   Clear
7:36 AM 41.0 °F 38.0 °F 35.6 °F 81% 29.88 in 10.0 mi SE 4.6 mph - N/A   Clear
7:56 AM 40.5 °F 38.4 °F 35.1 °F 81% 29.88 in 10.0 mi ESE 3.5 mph - N/A   Clear
8:16 AM 40.6 °F 38.6 °F 35.2 °F 81% 29.89 in 10.0 mi SE 3.5 mph - N/A   Clear
8:36 AM 41.7 °F 38.8 °F 35.8 °F 79% 29.89 in 10.0 mi SE 4.6 mph - N/A   Clear
8:56 AM 42.8 °F 39.3 °F 36.0 °F 77% 29.90 in 10.0 mi SE 5.8 mph - N/A   Clear
9:16 AM 44.6 °F 42.2 °F 36.5 °F 73% 29.90 in 10.0 mi South 4.6 mph - N/A   Clear
9:36 AM 46.0 °F 41.4 °F 37.2 °F 71% 29.90 in 10.0 mi SSW 9.2 mph - N/A   Clear
9:51 AM 46.6 °F - 37.4 °F 70% 29.90 in 10.0 mi SSW 9.2 mph - N/A   Clear
10:11 AM 47.3 °F - 37.2 °F 68% 29.90 in 10.0 mi SSW 8.1 mph - N/A   Clear
10:31 AM 47.8 °F - 37.2 °F 67% 29.90 in 10.0 mi SW 9.2 mph - N/A   Clear
10:51 AM 48.2 °F - 38.1 °F 68% 29.90 in 10.0 mi SSW 9.2 mph - N/A   Clear
11:12 AM 48.4 °F - 37.2 °F 65% 29.91 in 10.0 mi SW 8.1 mph 17.3 mph N/A   Clear
11:32 AM 48.9 °F - 37.4 °F 64% 29.91 in 10.0 mi SSW 10.4 mph 16.1 mph N/A   Clear
11:52 AM 48.6 °F - 37.6 °F 66% 29.91 in 10.0 mi SSW 11.5 mph 19.6 mph N/A   Clear
12:12 PM 48.9 °F - 37.8 °F 65% 29.90 in 10.0 mi WSW 13.8 mph - N/A   Clear
12:32 PM 49.1 °F - 37.6 °F 64% 29.90 in 10.0 mi SW 10.4 mph 17.3 mph N/A   Clear
12:52 PM 48.6 °F - 37.2 °F 65% 29.90 in 10.0 mi SW 11.5 mph 19.6 mph N/A   Clear
1:12 PM 48.4 °F - 36.9 °F 64% 29.89 in 10.0 mi SW 15.0 mph 19.6 mph N/A   Clear
1:32 PM 48.9 °F - 37.6 °F 65% 29.89 in 10.0 mi SSW 11.5 mph 17.3 mph N/A   Clear
1:53 PM 48.4 °F - 37.4 °F 66% 29.89 in 10.0 mi SSW 12.7 mph 18.4 mph N/A   Clear
2:13 PM 48.0 °F - 37.2 °F 66% 29.89 in 10.0 mi SW 11.5 mph 19.6 mph N/A   Clear
2:33 PM 48.2 °F - 37.6 °F 67% 29.89 in 10.0 mi SSW 13.8 mph 17.3 mph N/A   Clear
2:53 PM 47.8 °F - 37.9 °F 69% 29.88 in 10.0 mi SSW 8.1 mph 18.4 mph N/A   Clear
3:13 PM 47.7 °F - 38.3 °F 70% 29.88 in 10.0 mi SSW 11.5 mph 17.3 mph N/A   Clear
3:33 PM 47.3 °F - 38.3 °F 71% 29.88 in 10.0 mi SSW 11.5 mph 17.3 mph N/A   Clear
3:53 PM 47.3 °F - 38.8 °F 72% 29.88 in 10.0 mi SSW 10.4 mph 16.1 mph N/A   Clear
4:13 PM 47.3 °F - 38.7 °F 72% 29.88 in 10.0 mi SW 8.1 mph - N/A   Clear
4:33 PM 46.8 °F - 38.3 °F 72% 29.89 in 10.0 mi SSW 6.9 mph 18.4 mph N/A   Clear
4:53 PM 46.4 °F 42.9 °F 38.3 °F 73% 29.89 in 10.0 mi SW 6.9 mph - N/A   Clear
5:13 PM 45.7 °F 42.0 °F 38.3 °F 75% 29.89 in 10.0 mi SSW 6.9 mph - N/A   Clear
5:34 PM 45.7 °F 41.0 °F 38.7 °F 76% 29.90 in 10.0 mi SSW 9.2 mph 18.4 mph N/A   Clear
5:56 PM 45.5 °F 42.5 °F 38.7 °F 77% 29.90 in 10.0 mi SSW 5.8 mph 16.1 mph N/A   Clear
6:16 PM 45.5 °F 41.8 °F 38.3 °F 76% 29.91 in 10.0 mi SSW 6.9 mph - N/A   Clear
6:31 PM 45.5 °F 41.3 °F 38.5 °F 76% 29.91 in 10.0 mi SSW 8.1 mph - N/A   Clear
6:51 PM 44.6 °F 40.7 °F 37.6 °F 76% 29.91 in 10.0 mi SSW 6.9 mph - N/A   Clear
7:11 PM 44.1 °F 41.5 °F 36.5 °F 75% 29.92 in 10.0 mi South 4.6 mph - N/A   Clear
7:31 PM 43.7 °F 40.3 °F 35.6 °F 73% 29.92 in 10.0 mi South 5.8 mph - N/A   Clear
7:51 PM 43.0 °F 40.3 °F 35.1 °F 74% 29.92 in 10.0 mi SSE 4.6 mph - N/A   Clear
8:12 PM 42.8 °F 41.1 °F 35.1 °F 74% 29.92 in 10.0 mi SE 3.5 mph - N/A   Clear
8:32 PM 42.1 °F 38.4 °F 34.9 °F 76% 29.92 in 10.0 mi SE 5.8 mph - N/A   Clear
8:52 PM 41.9 °F 40.0 °F 35.1 °F 77% 29.92 in 10.0 mi SE 3.5 mph - N/A   Clear
9:12 PM 41.7 °F 39.8 °F 35.1 °F 77% 29.92 in 10.0 mi ESE 3.5 mph - N/A   Clear
9:32 PM 41.7 °F 38.8 °F 35.1 °F 77% 29.91 in 10.0 mi ESE 4.6 mph - N/A   Clear
9:52 PM 41.4 °F 39.4 °F 35.1 °F 78% 29.91 in 10.0 mi ESE 3.5 mph - N/A   Clear
10:12 PM 41.4 °F 39.4 °F 35.1 °F 78% 29.91 in 10.0 mi ESE 3.5 mph - N/A   Clear
10:32 PM 41.2 °F 39.2 °F 34.9 °F 78% 29.92 in 10.0 mi ESE 3.5 mph - N/A   Clear
10:52 PM 41.0 °F - 34.9 °F 79% 29.92 in 10.0 mi Calm Calm - N/A   Clear
11:12 PM 41.0 °F 38.0 °F 35.1 °F 79% 29.92 in 10.0 mi SE 4.6 mph - N/A   Clear
11:32 PM 40.8 °F - 35.1 °F 80% 29.93 in 10.0 mi Calm Calm - N/A   Clear
11:53 PM 39.2 °F 37.0 °F 34.3 °F 83% 29.92 in 10.0 mi ESE 3.5 mph - N/A   Clear